sensor_id;sensor_type;location;lat;lon;timestamp;pressure;altitude;pressure_sealevel;temperature;humidity
8069;BME280;4077;43.702;24.896;2022-08-21T00:01:16;98792.34;;;20.68;100.00
8069;BME280;4077;43.702;24.896;2022-08-21T00:03:43;98796.72;;;20.67;100.00
8069;BME280;4077;43.702;24.896;2022-08-21T00:06:09;98791.13;;;20.55;100.00
8069;BME280;4077;43.702;24.896;2022-08-21T00:08:35;98775.63;;;20.48;100.00
8069;BME280;4077;43.702;24.896;2022-08-21T00:11:01;98776.69;;;20.43;100.00
8069;BME280;4077;43.702;24.896;2022-08-21T00:13:27;98779.38;;;20.41;100.00
8069;BME280;4077;43.702;24.896;2022-08-21T00:15:52;98794.28;;;20.63;100.00
8069;BME280;4077;43.702;24.896;2022-08-21T00:18:18;98795.13;;;20.63;100.00
8069;BME280;4077;43.702;24.896;2022-08-21T00:20:46;98794.91;;;20.47;100.00
8069;BME280;4077;43.702;24.896;2022-08-21T00:23:11;98811.50;;;20.48;100.00
8069;BME280;4077;43.702;24.896;2022-08-21T00:25:38;98813.63;;;20.37;100.00
8069;BME280;4077;43.702;24.896;2022-08-21T00:28:05;98799.97;;;20.29;100.00
8069;BME280;4077;43.702;24.896;2022-08-21T00:30:32;98786.19;;;20.23;100.00
8069;BME280;4077;43.702;24.896;2022-08-21T00:32:58;98776.44;;;20.05;100.00
8069;BME280;4077;43.702;24.896;2022-08-21T00:35:30;98760.13;;;19.99;100.00
8069;BME280;4077;43.702;24.896;2022-08-21T00:37:56;98759.88;;;20.05;100.00
8069;BME280;4077;43.702;24.896;2022-08-21T00:40:30;98756.97;;;20.12;100.00
8069;BME280;4077;43.702;24.896;2022-08-21T00:42:56;98765.13;;;20.05;100.00
8069;BME280;4077;43.702;24.896;2022-08-21T00:45:22;98742.06;;;19.91;100.00
8069;BME280;4077;43.702;24.896;2022-08-21T00:47:49;98748.78;;;19.98;100.00
8069;BME280;4077;43.702;24.896;2022-08-21T00:50:16;98749.25;;;20.08;100.00
8069;BME280;4077;43.702;24.896;2022-08-21T00:52:42;98759.66;;;20.11;100.00
8069;BME280;4077;43.702;24.896;2022-08-21T00:55:10;98756.56;;;20.00;100.00
8069;BME280;4077;43.702;24.896;2022-08-21T00:57:42;98771.38;;;20.01;100.00
8069;BME280;4077;43.702;24.896;2022-08-21T01:00:13;98767.78;;;20.03;100.00
8069;BME280;4077;43.702;24.896;2022-08-21T01:02:40;98755.91;;;20.16;100.00
8069;BME280;4077;43.702;24.896;2022-08-21T01:05:06;98772.53;;;20.15;100.00
8069;BME280;4077;43.702;24.896;2022-08-21T01:07:32;98756.56;;;20.00;100.00
8069;BME280;4077;43.702;24.896;2022-08-21T01:10:02;98736.16;;;20.08;100.00
8069;BME280;4077;43.702;24.896;2022-08-21T01:12:28;98727.81;;;19.98;100.00
8069;BME280;4077;43.702;24.896;2022-08-21T01:14:54;98705.47;;;20.11;100.00
8069;BME280;4077;43.702;24.896;2022-08-21T01:17:20;98687.72;;;20.18;100.00
8069;BME280;4077;43.702;24.896;2022-08-21T01:19:46;98682.47;;;19.96;100.00
8069;BME280;4077;43.702;24.896;2022-08-21T01:22:12;98671.16;;;19.74;100.00
8069;BME280;4077;43.702;24.896;2022-08-21T01:24:38;98661.47;;;19.52;100.00
8069;BME280;4077;43.702;24.896;2022-08-21T01:27:03;98638.78;;;19.29;100.00
8069;BME280;4077;43.702;24.896;2022-08-21T01:29:45;98617.06;;;19.04;100.00
8069;BME280;4077;43.702;24.896;2022-08-21T01:32:18;98617.97;;;19.26;100.00
8069;BME280;4077;43.702;24.896;2022-08-21T01:34:46;98618.47;;;19.36;100.00
8069;BME280;4077;43.702;24.896;2022-08-21T01:37:13;98611.50;;;19.35;100.00
8069;BME280;4077;43.702;24.896;2022-08-21T01:39:39;98621.19;;;19.33;100.00
8069;BME280;4077;43.702;24.896;2022-08-21T01:42:06;98626.88;;;19.21;100.00
8069;BME280;4077;43.702;24.896;2022-08-21T01:44:32;98632.75;;;19.04;100.00
8069;BME280;4077;43.702;24.896;2022-08-21T01:46:59;98623.38;;;18.98;100.00
8069;BME280;4077;43.702;24.896;2022-08-21T01:49:25;98627.97;;;18.92;100.00
8069;BME280;4077;43.702;24.896;2022-08-21T01:51:50;98635.88;;;18.90;100.00
8069;BME280;4077;43.702;24.896;2022-08-21T01:54:15;98643.16;;;18.82;100.00
8069;BME280;4077;43.702;24.896;2022-08-21T01:56:43;98636.44;;;18.75;100.00
8069;BME280;4077;43.702;24.896;2022-08-21T01:59:10;98621.53;;;18.77;100.00
8069;BME280;4077;43.702;24.896;2022-08-21T02:01:36;98624.72;;;18.85;100.00
8069;BME280;4077;43.702;24.896;2022-08-21T02:04:05;98636.66;;;18.92;100.00
8069;BME280;4077;43.702;24.896;2022-08-21T02:06:31;98649.28;;;18.81;100.00
8069;BME280;4077;43.702;24.896;2022-08-21T02:08:56;98652.63;;;18.84;100.00
8069;BME280;4077;43.702;24.896;2022-08-21T02:11:24;98648.25;;;18.85;100.00
8069;BME280;4077;43.702;24.896;2022-08-21T02:13:51;98645.84;;;18.79;100.00
8069;BME280;4077;43.702;24.896;2022-08-21T02:16:17;98654.25;;;18.89;100.00
8069;BME280;4077;43.702;24.896;2022-08-21T02:18:42;98657.50;;;18.95;100.00
8069;BME280;4077;43.702;24.896;2022-08-21T02:21:08;98662.03;;;18.90;100.00
8069;BME280;4077;43.702;24.896;2022-08-21T02:23:34;98646.97;;;18.72;100.00
8069;BME280;4077;43.702;24.896;2022-08-21T02:26:02;98646.34;;;18.90;100.00
8069;BME280;4077;43.702;24.896;2022-08-21T02:28:28;98641.09;;;18.90;100.00
8069;BME280;4077;43.702;24.896;2022-08-21T02:30:55;98633.25;;;18.90;100.00
8069;BME280;4077;43.702;24.896;2022-08-21T02:33:21;98633.13;;;18.93;100.00
8069;BME280;4077;43.702;24.896;2022-08-21T02:35:47;98649.75;;;18.92;100.00
8069;BME280;4077;43.702;24.896;2022-08-21T02:38:16;98642.47;;;19.00;100.00
8069;BME280;4077;43.702;24.896;2022-08-21T02:40:44;98644.06;;;19.04;100.00
8069;BME280;4077;43.702;24.896;2022-08-21T02:43:10;98649.66;;;18.95;100.00
8069;BME280;4077;43.702;24.896;2022-08-21T02:45:37;98655.81;;;18.93;100.00
8069;BME280;4077;43.702;24.896;2022-08-21T02:48:08;98657.78;;;18.86;100.00
8069;BME280;4077;43.702;24.896;2022-08-21T02:50:43;98654.75;;;18.73;100.00
8069;BME280;4077;43.702;24.896;2022-08-21T02:53:10;98664.47;;;18.70;100.00
8069;BME280;4077;43.702;24.896;2022-08-21T02:55:37;98678.25;;;18.75;100.00
8069;BME280;4077;43.702;24.896;2022-08-21T02:58:04;98671.47;;;18.94;100.00
8069;BME280;4077;43.702;24.896;2022-08-21T03:00:32;98677.59;;;18.93;100.00
8069;BME280;4077;43.702;24.896;2022-08-21T03:02:58;98682.59;;;18.99;100.00
8069;BME280;4077;43.702;24.896;2022-08-21T03:05:25;98668.16;;;18.89;100.00
8069;BME280;4077;43.702;24.896;2022-08-21T03:07:51;98689.66;;;18.97;100.00
8069;BME280;4077;43.702;24.896;2022-08-21T03:10:19;98688.88;;;18.95;100.00
8069;BME280;4077;43.702;24.896;2022-08-21T03:12:48;98688.19;;;18.90;100.00
8069;BME280;4077;43.702;24.896;2022-08-21T03:15:16;98698.44;;;18.96;100.00
8069;BME280;4077;43.702;24.896;2022-08-21T03:17:43;98689.78;;;18.94;100.00
8069;BME280;4077;43.702;24.896;2022-08-21T03:20:10;98701.19;;;18.92;100.00
8069;BME280;4077;43.702;24.896;2022-08-21T03:22:36;98705.78;;;18.85;100.00
8069;BME280;4077;43.702;24.896;2022-08-21T03:25:03;98696.88;;;18.91;100.00
8069;BME280;4077;43.702;24.896;2022-08-21T03:27:29;98695.22;;;18.88;100.00
8069;BME280;4077;43.702;24.896;2022-08-21T03:29:56;98704.59;;;18.94;100.00
8069;BME280;4077;43.702;24.896;2022-08-21T03:32:22;98712.22;;;19.00;100.00
8069;BME280;4077;43.702;24.896;2022-08-21T03:34:48;98712.78;;;19.09;100.00
8069;BME280;4077;43.702;24.896;2022-08-21T03:37:14;98709.41;;;19.06;100.00
8069;BME280;4077;43.702;24.896;2022-08-21T03:39:41;98707.59;;;19.08;100.00
8069;BME280;4077;43.702;24.896;2022-08-21T03:42:07;98686.28;;;18.94;100.00
8069;BME280;4077;43.702;24.896;2022-08-21T03:44:33;98708.56;;;19.05;100.00
8069;BME280;4077;43.702;24.896;2022-08-21T03:47:00;98689.19;;;18.86;100.00
8069;BME280;4077;43.702;24.896;2022-08-21T03:49:26;98708.50;;;19.07;100.00
8069;BME280;4077;43.702;24.896;2022-08-21T03:51:51;98719.00;;;19.05;100.00
8069;BME280;4077;43.702;24.896;2022-08-21T03:54:17;98715.66;;;19.02;100.00
8069;BME280;4077;43.702;24.896;2022-08-21T03:56:43;98718.28;;;19.02;100.00
8069;BME280;4077;43.702;24.896;2022-08-21T03:59:08;98728.75;;;19.02;100.00
8069;BME280;4077;43.702;24.896;2022-08-21T04:01:34;98711.50;;;18.96;100.00
8069;BME280;4077;43.702;24.896;2022-08-21T04:04:00;98730.66;;;18.97;100.00
8069;BME280;4077;43.702;24.896;2022-08-21T04:06:26;98729.03;;;18.93;100.00
8069;BME280;4077;43.702;24.896;2022-08-21T04:08:52;98726.50;;;18.91;100.00
8069;BME280;4077;43.702;24.896;2022-08-21T04:11:18;98742.97;;;18.93;100.00
8069;BME280;4077;43.702;24.896;2022-08-21T04:13:44;98737.88;;;18.90;100.00
8069;BME280;4077;43.702;24.896;2022-08-21T04:16:09;98748.06;;;18.98;100.00
8069;BME280;4077;43.702;24.896;2022-08-21T04:18:35;98740.34;;;18.93;100.00
8069;BME280;4077;43.702;24.896;2022-08-21T04:21:01;98739.97;;;18.79;100.00
8069;BME280;4077;43.702;24.896;2022-08-21T04:23:27;98735.97;;;18.69;100.00
8069;BME280;4077;43.702;24.896;2022-08-21T04:25:55;98734.53;;;18.58;100.00
8069;BME280;4077;43.702;24.896;2022-08-21T04:28:21;98713.75;;;18.55;100.00
8069;BME280;4077;43.702;24.896;2022-08-21T04:30:47;98716.09;;;18.63;100.00
8069;BME280;4077;43.702;24.896;2022-08-21T04:33:13;98711.84;;;18.61;100.00
8069;BME280;4077;43.702;24.896;2022-08-21T04:35:38;98704.66;;;18.66;100.00
8069;BME280;4077;43.702;24.896;2022-08-21T04:38:04;98718.78;;;18.86;100.00
8069;BME280;4077;43.702;24.896;2022-08-21T04:40:29;98734.28;;;18.93;100.00
8069;BME280;4077;43.702;24.896;2022-08-21T04:43:00;98736.31;;;19.09;100.00
8069;BME280;4077;43.702;24.896;2022-08-21T04:45:29;98736.69;;;19.24;100.00
8069;BME280;4077;43.702;24.896;2022-08-21T04:47:57;98732.25;;;19.26;100.00
8069;BME280;4077;43.702;24.896;2022-08-21T04:50:31;98743.34;;;19.32;100.00
8069;BME280;4077;43.702;24.896;2022-08-21T04:53:01;98745.75;;;19.38;100.00
8069;BME280;4077;43.702;24.896;2022-08-21T04:55:27;98749.84;;;19.46;100.00
8069;BME280;4077;43.702;24.896;2022-08-21T04:57:54;98746.31;;;19.47;100.00
8069;BME280;4077;43.702;24.896;2022-08-21T05:00:22;98746.31;;;19.47;100.00
8069;BME280;4077;43.702;24.896;2022-08-21T05:02:51;98724.75;;;19.40;100.00
8069;BME280;4077;43.702;24.896;2022-08-21T05:05:21;98733.38;;;19.42;100.00
8069;BME280;4077;43.702;24.896;2022-08-21T05:07:47;98739.88;;;19.55;100.00
8069;BME280;4077;43.702;24.896;2022-08-21T05:10:13;98736.38;;;19.56;100.00
8069;BME280;4077;43.702;24.896;2022-08-21T05:12:41;98748.56;;;19.57;100.00
8069;BME280;4077;43.702;24.896;2022-08-21T05:15:09;98744.44;;;19.50;100.00
8069;BME280;4077;43.702;24.896;2022-08-21T05:17:37;98746.22;;;19.50;100.00
8069;BME280;4077;43.702;24.896;2022-08-21T05:20:03;98743.34;;;19.57;100.00
8069;BME280;4077;43.702;24.896;2022-08-21T05:22:28;98744.00;;;19.62;100.00
8069;BME280;4077;43.702;24.896;2022-08-21T05:24:54;98740.31;;;19.68;100.00
8069;BME280;4077;43.702;24.896;2022-08-21T05:27:19;98744.41;;;19.75;100.00
8069;BME280;4077;43.702;24.896;2022-08-21T05:29:45;98738.78;;;19.86;100.00
8069;BME280;4077;43.702;24.896;2022-08-21T05:32:12;98736.94;;;19.88;100.00
8069;BME280;4077;43.702;24.896;2022-08-21T05:34:37;98741.16;;;19.92;100.00
8069;BME280;4077;43.702;24.896;2022-08-21T05:37:03;98743.03;;;19.88;100.00
8069;BME280;4077;43.702;24.896;2022-08-21T05:39:29;98743.72;;;19.93;100.00
8069;BME280;4077;43.702;24.896;2022-08-21T05:41:54;98740.78;;;20.01;100.00
8069;BME280;4077;43.702;24.896;2022-08-21T05:44:20;98735.69;;;19.98;100.00
8069;BME280;4077;43.702;24.896;2022-08-21T05:46:45;98751.72;;;20.12;100.00
8069;BME280;4077;43.702;24.896;2022-08-21T05:49:11;98761.66;;;20.26;100.00
8069;BME280;4077;43.702;24.896;2022-08-21T05:51:36;98761.59;;;20.28;100.00
8069;BME280;4077;43.702;24.896;2022-08-21T05:54:04;98751.25;;;20.25;100.00
8069;BME280;4077;43.702;24.896;2022-08-21T05:56:29;98751.88;;;20.30;100.00
8069;BME280;4077;43.702;24.896;2022-08-21T05:58:55;98754.88;;;20.42;100.00
8069;BME280;4077;43.702;24.896;2022-08-21T06:01:20;98751.97;;;20.50;100.00
8069;BME280;4077;43.702;24.896;2022-08-21T06:03:46;98754.88;;;20.64;100.00
8069;BME280;4077;43.702;24.896;2022-08-21T06:06:11;98765.59;;;20.80;100.00
8069;BME280;4077;43.702;24.896;2022-08-21T06:08:37;98778.16;;;20.94;100.00
8069;BME280;4077;43.702;24.896;2022-08-21T06:11:04;98781.03;;;21.08;100.00
8069;BME280;4077;43.702;24.896;2022-08-21T06:13:30;98767.56;;;21.16;100.00
8069;BME280;4077;43.702;24.896;2022-08-21T06:16:22;98781.97;;;21.27;100.00
8069;BME280;4077;43.702;24.896;2022-08-21T06:18:48;98779.38;;;21.26;100.00
8069;BME280;4077;43.702;24.896;2022-08-21T06:21:13;98787.75;;;21.36;100.00
8069;BME280;4077;43.702;24.896;2022-08-21T06:23:39;98794.56;;;21.40;100.00
8069;BME280;4077;43.702;24.896;2022-08-21T06:26:06;98791.16;;;21.38;100.00
8069;BME280;4077;43.702;24.896;2022-08-21T06:28:33;98797.31;;;21.37;100.00
8069;BME280;4077;43.702;24.896;2022-08-21T06:31:00;98795.63;;;21.36;100.00
8069;BME280;4077;43.702;24.896;2022-08-21T06:33:25;98793.84;;;21.36;100.00
8069;BME280;4077;43.702;24.896;2022-08-21T06:35:51;98802.59;;;21.37;100.00
8069;BME280;4077;43.702;24.896;2022-08-21T06:38:17;98800.03;;;21.35;100.00
8069;BME280;4077;43.702;24.896;2022-08-21T06:40:42;98801.59;;;21.39;100.00
8069;BME280;4077;43.702;24.896;2022-08-21T06:43:13;98795.66;;;21.54;100.00
8069;BME280;4077;43.702;24.896;2022-08-21T06:45:39;98807.81;;;21.57;100.00
8069;BME280;4077;43.702;24.896;2022-08-21T06:48:05;98817.34;;;21.78;100.00
8069;BME280;4077;43.702;24.896;2022-08-21T06:50:32;98827.53;;;22.05;100.00
8069;BME280;4077;43.702;24.896;2022-08-21T06:53:04;98826.00;;;22.38;100.00
8069;BME280;4077;43.702;24.896;2022-08-21T06:55:31;98834.06;;;22.72;100.00
8069;BME280;4077;43.702;24.896;2022-08-21T06:57:56;98818.66;;;23.00;100.00
8069;BME280;4077;43.702;24.896;2022-08-21T07:00:22;98843.34;;;23.32;100.00
8069;BME280;4077;43.702;24.896;2022-08-21T07:02:47;98848.53;;;23.34;100.00
8069;BME280;4077;43.702;24.896;2022-08-21T07:05:13;98843.19;;;23.18;100.00
8069;BME280;4077;43.702;24.896;2022-08-21T07:07:38;98847.84;;;23.13;100.00
8069;BME280;4077;43.702;24.896;2022-08-21T07:10:04;98849.84;;;23.25;100.00
8069;BME280;4077;43.702;24.896;2022-08-21T07:12:29;98847.22;;;23.25;100.00
8069;BME280;4077;43.702;24.896;2022-08-21T07:14:56;98852.19;;;23.14;100.00
8069;BME280;4077;43.702;24.896;2022-08-21T07:17:22;98857.88;;;23.05;100.00
8069;BME280;4077;43.702;24.896;2022-08-21T07:19:47;98855.56;;;23.16;100.00
8069;BME280;4077;43.702;24.896;2022-08-21T07:22:14;98856.38;;;23.35;100.00
8069;BME280;4077;43.702;24.896;2022-08-21T07:24:42;98852.47;;;23.25;100.00
8069;BME280;4077;43.702;24.896;2022-08-21T07:27:07;98850.41;;;23.14;100.00
8069;BME280;4077;43.702;24.896;2022-08-21T07:29:32;98849.41;;;23.34;100.00
8069;BME280;4077;43.702;24.896;2022-08-21T07:31:58;98856.66;;;23.64;100.00
8069;BME280;4077;43.702;24.896;2022-08-21T07:34:23;98862.91;;;23.96;100.00
8069;BME280;4077;43.702;24.896;2022-08-21T07:36:49;98860.56;;;24.23;100.00
8069;BME280;4077;43.702;24.896;2022-08-21T07:39:14;98867.06;;;24.33;100.00
8069;BME280;4077;43.702;24.896;2022-08-21T07:41:40;98857.88;;;24.40;100.00
8069;BME280;4077;43.702;24.896;2022-08-21T07:44:05;98864.84;;;24.41;100.00
8069;BME280;4077;43.702;24.896;2022-08-21T07:46:30;98854.88;;;24.46;100.00
8069;BME280;4077;43.702;24.896;2022-08-21T07:48:56;98842.72;;;24.44;100.00
8069;BME280;4077;43.702;24.896;2022-08-21T07:51:24;98861.59;;;24.36;100.00
8069;BME280;4077;43.702;24.896;2022-08-21T07:53:52;98852.22;;;24.31;100.00
8069;BME280;4077;43.702;24.896;2022-08-21T07:56:19;98856.69;;;24.46;100.00
8069;BME280;4077;43.702;24.896;2022-08-21T07:58:45;98847.81;;;24.63;100.00
8069;BME280;4077;43.702;24.896;2022-08-21T08:01:11;98846.78;;;24.81;100.00
8069;BME280;4077;43.702;24.896;2022-08-21T08:03:37;98852.97;;;24.96;100.00
8069;BME280;4077;43.702;24.896;2022-08-21T08:06:04;98857.16;;;24.84;100.00
8069;BME280;4077;43.702;24.896;2022-08-21T08:08:30;98855.22;;;24.72;100.00
8069;BME280;4077;43.702;24.896;2022-08-21T08:10:56;98858.22;;;24.66;100.00
8069;BME280;4077;43.702;24.896;2022-08-21T08:13:23;98850.69;;;24.74;100.00
8069;BME280;4077;43.702;24.896;2022-08-21T08:15:49;98849.47;;;24.95;100.00
8069;BME280;4077;43.702;24.896;2022-08-21T08:18:15;98852.22;;;25.24;100.00
8069;BME280;4077;43.702;24.896;2022-08-21T08:20:41;98851.13;;;25.28;100.00
8069;BME280;4077;43.702;24.896;2022-08-21T08:23:09;98847.03;;;25.22;100.00
8069;BME280;4077;43.702;24.896;2022-08-21T08:25:35;98828.72;;;25.05;100.00
8069;BME280;4077;43.702;24.896;2022-08-21T08:28:00;98839.50;;;25.00;100.00
8069;BME280;4077;43.702;24.896;2022-08-21T08:30:25;98841.31;;;24.84;100.00
8069;BME280;4077;43.702;24.896;2022-08-21T08:32:51;98842.78;;;24.74;100.00
8069;BME280;4077;43.702;24.896;2022-08-21T08:35:17;98832.91;;;24.62;100.00
8069;BME280;4077;43.702;24.896;2022-08-21T08:37:43;98833.00;;;24.60;100.00
8069;BME280;4077;43.702;24.896;2022-08-21T08:40:22;98833.84;;;24.61;100.00
8069;BME280;4077;43.702;24.896;2022-08-21T08:42:54;98826.06;;;24.43;100.00
8069;BME280;4077;43.702;24.896;2022-08-21T08:45:21;98830.28;;;24.46;100.00
8069;BME280;4077;43.702;24.896;2022-08-21T08:47:53;98818.38;;;24.39;100.00
8069;BME280;4077;43.702;24.896;2022-08-21T08:50:54;98816.25;;;24.45;100.00
8069;BME280;4077;43.702;24.896;2022-08-21T08:53:24;98817.09;;;24.46;100.00
8069;BME280;4077;43.702;24.896;2022-08-21T08:55:53;98818.91;;;24.45;100.00
8069;BME280;4077;43.702;24.896;2022-08-21T08:58:23;98816.34;;;24.44;100.00
8069;BME280;4077;43.702;24.896;2022-08-21T09:00:52;98811.13;;;24.42;100.00
8069;BME280;4077;43.702;24.896;2022-08-21T09:03:18;98808.84;;;24.36;100.00
8069;BME280;4077;43.702;24.896;2022-08-21T09:06:00;98798.38;;;24.35;100.00
8069;BME280;4077;43.702;24.896;2022-08-21T09:08:54;98789.44;;;24.37;100.00
8069;BME280;4077;43.702;24.896;2022-08-21T09:12:04;98794.97;;;24.48;100.00
8069;BME280;4077;43.702;24.896;2022-08-21T09:17:46;98800.66;;;24.56;100.00
8069;BME280;4077;43.702;24.896;2022-08-21T09:25:28;98795.47;;;24.71;100.00
8069;BME280;4077;43.702;24.896;2022-08-21T09:27:56;98793.31;;;24.77;100.00
8069;BME280;4077;43.702;24.896;2022-08-21T09:30:31;98801.63;;;24.86;100.00
8069;BME280;4077;43.702;24.896;2022-08-21T09:32:57;98799.75;;;24.88;100.00
8069;BME280;4077;43.702;24.896;2022-08-21T09:35:23;98800.44;;;24.91;100.00
8069;BME280;4077;43.702;24.896;2022-08-21T09:37:55;98798.19;;;24.99;100.00
8069;BME280;4077;43.702;24.896;2022-08-21T09:43:19;98811.56;;;25.12;100.00
8069;BME280;4077;43.702;24.896;2022-08-21T09:45:48;98802.59;;;25.15;100.00
8069;BME280;4077;43.702;24.896;2022-08-21T09:48:18;98805.13;;;25.16;100.00
8069;BME280;4077;43.702;24.896;2022-08-21T09:50:45;98798.66;;;25.22;100.00
8069;BME280;4077;43.702;24.896;2022-08-21T09:53:24;98795.16;;;25.21;100.00
8069;BME280;4077;43.702;24.896;2022-08-21T09:59:32;98784.72;;;25.04;100.00
8069;BME280;4077;43.702;24.896;2022-08-21T10:02:00;98792.03;;;25.15;100.00
8069;BME280;4077;43.702;24.896;2022-08-21T10:04:30;98782.78;;;25.07;100.00
8069;BME280;4077;43.702;24.896;2022-08-21T10:07:08;98782.22;;;25.17;100.00
8069;BME280;4077;43.702;24.896;2022-08-21T10:09:34;98794.81;;;25.27;100.00
8069;BME280;4077;43.702;24.896;2022-08-21T10:17:56;98780.91;;;25.24;100.00
8069;BME280;4077;43.702;24.896;2022-08-21T10:26:10;98757.84;;;25.12;100.00
8069;BME280;4077;43.702;24.896;2022-08-21T10:28:47;98766.00;;;25.23;100.00
8069;BME280;4077;43.702;24.896;2022-08-21T10:31:36;98767.53;;;25.41;100.00
8069;BME280;4077;43.702;24.896;2022-08-21T10:47:12;98762.84;;;25.46;100.00
8069;BME280;4077;43.702;24.896;2022-08-21T10:55:20;98760.56;;;25.40;100.00
8069;BME280;4077;43.702;24.896;2022-08-21T10:57:59;98749.03;;;25.41;100.00
8069;BME280;4077;43.702;24.896;2022-08-21T11:00:49;98749.63;;;25.46;100.00
8069;BME280;4077;43.702;24.896;2022-08-21T11:03:29;98735.16;;;25.37;100.00
8069;BME280;4077;43.702;24.896;2022-08-21T11:06:06;98734.13;;;25.40;100.00
8069;BME280;4077;43.702;24.896;2022-08-21T11:08:46;98736.47;;;25.45;100.00
8069;BME280;4077;43.702;24.896;2022-08-21T11:11:23;98729.03;;;25.37;100.00
8069;BME280;4077;43.702;24.896;2022-08-21T11:13:54;98725.25;;;25.41;100.00
8069;BME280;4077;43.702;24.896;2022-08-21T11:16:30;98727.13;;;25.39;100.00
8069;BME280;4077;43.702;24.896;2022-08-21T11:22:15;98720.63;;;25.59;100.00
8069;BME280;4077;43.702;24.896;2022-08-21T11:24:50;98727.22;;;25.66;100.00
8069;BME280;4077;43.702;24.896;2022-08-21T11:27:45;98718.00;;;25.73;100.00
8069;BME280;4077;43.702;24.896;2022-08-21T11:30:13;98709.78;;;25.78;100.00
8069;BME280;4077;43.702;24.896;2022-08-21T11:40:54;98697.88;;;25.85;100.00
8069;BME280;4077;43.702;24.896;2022-08-21T11:43:43;98707.09;;;25.92;95.13
8069;BME280;4077;43.702;24.896;2022-08-21T11:46:40;98690.31;;;25.79;100.00
8069;BME280;4077;43.702;24.896;2022-08-21T11:54:44;98684.94;;;25.80;100.00
8069;BME280;4077;43.702;24.896;2022-08-21T12:02:31;98677.94;;;25.79;100.00
8069;BME280;4077;43.702;24.896;2022-08-21T12:05:05;98674.81;;;25.87;100.00
8069;BME280;4077;43.702;24.896;2022-08-21T12:09:58;98680.47;;;25.95;100.00
8069;BME280;4077;43.702;24.896;2022-08-21T12:12:25;98682.31;;;26.07;100.00
8069;BME280;4077;43.702;24.896;2022-08-21T12:15:23;98679.41;;;26.25;100.00
8069;BME280;4077;43.702;24.896;2022-08-21T12:18:42;98672.84;;;26.17;100.00
8069;BME280;4077;43.702;24.896;2022-08-21T12:20:45;98667.88;;;26.26;100.00
8069;BME280;4077;43.702;24.896;2022-08-21T12:23:28;98668.09;;;26.23;100.00
8069;BME280;4077;43.702;24.896;2022-08-21T12:26:26;98669.97;;;26.21;100.00
8069;BME280;4077;43.702;24.896;2022-08-21T12:28:50;98652.13;;;26.24;100.00
8069;BME280;4077;43.702;24.896;2022-08-21T12:31:20;98660.16;;;26.23;100.00
8069;BME280;4077;43.702;24.896;2022-08-21T12:33:52;98657.50;;;26.23;100.00
8069;BME280;4077;43.702;24.896;2022-08-21T12:36:22;98655.72;;;26.23;100.00
8069;BME280;4077;43.702;24.896;2022-08-21T12:39:04;98644.06;;;26.26;100.00
8069;BME280;4077;43.702;24.896;2022-08-21T12:41:44;98646.72;;;26.26;100.00
8069;BME280;4077;43.702;24.896;2022-08-21T12:44:14;98654.03;;;26.35;100.00
8069;BME280;4077;43.702;24.896;2022-08-21T12:46:57;98635.94;;;26.29;100.00
8069;BME280;4077;43.702;24.896;2022-08-21T12:49:39;98631.38;;;26.31;100.00
8069;BME280;4077;43.702;24.896;2022-08-21T12:54:47;98628.00;;;26.29;100.00
8069;BME280;4077;43.702;24.896;2022-08-21T12:57:23;98635.13;;;26.41;100.00
8069;BME280;4077;43.702;24.896;2022-08-21T12:59:58;98634.19;;;26.42;100.00
8069;BME280;4077;43.702;24.896;2022-08-21T13:02:28;98634.00;;;26.45;100.00
8069;BME280;4077;43.702;24.896;2022-08-21T13:04:55;98634.19;;;26.42;100.00
8069;BME280;4077;43.702;24.896;2022-08-21T13:07:30;98639.66;;;26.39;100.00
8069;BME280;4077;43.702;24.896;2022-08-21T13:10:05;98631.94;;;26.36;100.00
8069;BME280;4077;43.702;24.896;2022-08-21T13:12:32;98624.91;;;26.35;100.00
8069;BME280;4077;43.702;24.896;2022-08-21T13:15:04;98628.22;;;26.38;100.00
8069;BME280;4077;43.702;24.896;2022-08-21T13:17:32;98632.28;;;26.44;100.00
8069;BME280;4077;43.702;24.896;2022-08-21T13:20:07;98637.97;;;26.38;100.00
8069;BME280;4077;43.702;24.896;2022-08-21T13:22:40;98627.84;;;26.17;100.00
8069;BME280;4077;43.702;24.896;2022-08-21T13:25:10;98629.00;;;26.13;100.00
8069;BME280;4077;43.702;24.896;2022-08-21T13:27:36;98633.22;;;26.03;100.00
8069;BME280;4077;43.702;24.896;2022-08-21T13:30:14;98628.72;;;25.91;100.00
8069;BME280;4077;43.702;24.896;2022-08-21T13:32:45;98631.00;;;25.83;100.00
8069;BME280;4077;43.702;24.896;2022-08-21T13:35:36;98624.22;;;25.79;100.00
8069;BME280;4077;43.702;24.896;2022-08-21T13:38:01;98629.13;;;25.85;100.00
8069;BME280;4077;43.702;24.896;2022-08-21T13:40:32;98626.81;;;25.93;100.00
8069;BME280;4077;43.702;24.896;2022-08-21T13:42:59;98627.03;;;25.90;100.00
8069;BME280;4077;43.702;24.896;2022-08-21T13:45:32;98630.06;;;25.84;100.00
8069;BME280;4077;43.702;24.896;2022-08-21T13:48:00;98622.53;;;25.78;100.00
8069;BME280;4077;43.702;24.896;2022-08-21T13:50:26;98618.75;;;25.82;100.00
8069;BME280;4077;43.702;24.896;2022-08-21T13:53:02;98614.53;;;25.92;100.00
8069;BME280;4077;43.702;24.896;2022-08-21T13:55:42;98610.81;;;25.82;100.00
8069;BME280;4077;43.702;24.896;2022-08-21T13:58:09;98613.66;;;25.79;100.00
8069;BME280;4077;43.702;24.896;2022-08-21T14:00:46;98614.75;;;25.89;100.00
8069;BME280;4077;43.702;24.896;2022-08-21T14:03:23;98606.72;;;25.90;100.00
8069;BME280;4077;43.702;24.896;2022-08-21T14:05:51;98608.19;;;25.82;100.00
8069;BME280;4077;43.702;24.896;2022-08-21T14:08:35;98605.81;;;25.77;100.00
8069;BME280;4077;43.702;24.896;2022-08-21T14:11:04;98598.91;;;25.89;100.00
8069;BME280;4077;43.702;24.896;2022-08-21T14:13:42;98607.16;;;25.97;100.00
8069;BME280;4077;43.702;24.896;2022-08-21T14:16:19;98602.34;;;26.16;100.00
8069;BME280;4077;43.702;24.896;2022-08-21T14:18:52;98610.66;;;26.37;100.00
8069;BME280;4077;43.702;24.896;2022-08-21T14:21:30;98604.97;;;26.43;100.00
8069;BME280;4077;43.702;24.896;2022-08-21T14:26:36;98599.34;;;26.48;100.00